aviador You're here:

SOCA Decoded Metar

CAYENNE in FRENCH GUYANA
Report Time2017-10-20 12:00:00
UTC Time2017-10-20 12:19:07
Flight Rules vfr VFR
Wind090° at 06 kt
W.Decomp.*RWY 08: 5.3 kt HW 2.7 kt RCW
W.Rank090° ranks 5
Current wind is above 090° avg. (5.9)
Visibility9999 m
Phenomena:N/A
Clouds:Scattered 020 Hf
Expected CloudBase > 2,000 ft AGL from Temp-Dew spread
CeilingNone
Temp29°C (ISA +14)
Dew Point24°C (74% RH)
Heat Index33.5°C
QNH1013 hPa
Density Alt2,034 ft
Elevation30 ft
Report Wrong Elevation
Raw Report
SOCA 201200Z AUTO 09006KT 060V140 9999 SCT020 29/24 Q1013
NOSIG=

Extra information for SOCA:More info

Metar Taf Metar & Taf Last 4 Metars F.Rules Stats Wind Profile Meteogram Temp Stats Airport Information Weather charts Add Link Nearby VenuesMetar ALERT Operation Metar Decoded Social comments